Time;durP1;ratioP1;P1;durP2;ratioP2;P2;SDS_P1;SDS_P2;PMS_P1;PMS_P2;Temp;Humidity;BMP_temperature;BMP_pressure;BME280_temperature;BME280_humidity;BME280_pressure;Samples;Min_cycle;Max_cycle;Signal;HPM_P1;HPM_P2
2022/05/05 00:02:04;;;;;;;8.90;5.32;;;13.10;55.60;;;;;;5061435;28;20029;-72
2022/05/05 00:04:30;;;;;;;10.63;5.63;;;13.10;55.50;;;;;;5067618;28;20406;-73
2022/05/05 00:06:57;;;;;;;8.38;4.90;;;13.10;55.60;;;;;;5073954;28;20040;-77
2022/05/05 00:09:23;;;;;;;10.68;6.15;;;13.20;55.60;;;;;;5067879;28;20036;-73
2022/05/05 00:14:40;;;;;;;10.60;5.38;;;13.10;56.20;;;;;;5074018;28;20460;-73
2022/05/05 00:17:09;;;;;;;10.05;5.40;;;13.10;56.30;;;;;;5071280;28;20029;-77
2022/05/05 00:19:42;;;;;;;12.35;5.95;;;13.00;56.40;;;;;;5072535;28;20492;-73
2022/05/05 00:22:10;;;;;;;10.07;5.22;;;13.10;56.40;;;;;;5073348;28;20060;-77
2022/05/05 00:24:38;;;;;;;8.00;5.53;;;13.00;56.20;;;;;;5072667;28;20435;-77
2022/05/05 00:27:06;;;;;;;10.27;5.25;;;13.00;56.10;;;;;;5055635;28;20033;-77
2022/05/05 00:29:32;;;;;;;9.15;5.57;;;13.00;56.20;;;;;;5072453;28;20038;-76
2022/05/05 00:31:58;;;;;;;9.35;5.03;;;13.00;56.30;;;;;;5071355;28;20370;-77
2022/05/05 00:34:24;;;;;;;11.40;5.28;;;13.00;56.40;;;;;;5072365;28;20045;-73
2022/05/05 00:36:50;;;;;;;8.40;5.20;;;12.90;56.50;;;;;;5060690;28;20108;-73
2022/05/05 00:39:17;;;;;;;9.80;5.78;;;12.90;56.40;;;;;;5073386;28;20046;-72
2022/05/05 00:41:45;;;;;;;8.45;4.90;;;12.90;56.10;;;;;;5051645;28;20029;-76
2022/05/05 00:44:15;;;;;;;7.38;4.85;;;12.90;56.80;;;;;;5055391;28;20029;-73
2022/05/05 00:47:06;;;;;;;7.53;4.68;;;12.90;57.00;;;;;;5070539;28;20485;-77
2022/05/05 00:49:32;;;;;;;7.07;4.82;;;12.80;56.90;;;;;;5073334;28;20103;-73
2022/05/05 00:51:59;;;;;;;;;;;12.80;56.80;;;;;;5073667;28;20025;-72
2022/05/05 00:54:26;;;;;;;8.90;5.07;;;12.80;56.00;;;;;;5073230;28;19962;-73
2022/05/05 00:56:52;;;;;;;7.88;4.60;;;12.80;56.30;;;;;;5071465;28;20098;-73
2022/05/05 00:59:19;;;;;;;;;;;12.70;56.30;;;;;;5072477;28;20048;-73
2022/05/05 01:01:45;;;;;;;9.67;4.97;;;12.70;55.90;;;;;;5050282;28;20349;-77
2022/05/05 01:04:11;;;;;;;8.57;5.45;;;12.70;56.50;;;;;;5068454;28;20087;-77
2022/05/05 01:06:37;;;;;;;11.32;6.07;;;12.70;56.80;;;;;;5052881;28;20056;-77
2022/05/05 01:09:05;;;;;;;11.90;7.05;;;12.70;56.90;;;;;;5068558;28;20059;-72
2022/05/05 01:11:31;;;;;;;10.77;5.63;;;12.70;57.00;;;;;;5051235;28;20045;-72
2022/05/05 01:13:57;;;;;;;8.73;5.93;;;12.70;57.40;;;;;;5051741;28;20075;-77
2022/05/05 01:16:23;;;;;;;8.85;5.00;;;12.60;57.10;;;;;;5053980;28;20483;-77
2022/05/05 01:18:55;;;;;;;10.02;5.40;;;12.50;57.40;;;;;;5071591;28;20060;-73
2022/05/05 01:21:24;;;;;;;9.77;5.60;;;12.40;57.90;;;;;;5071535;28;20039;-77
2022/05/05 01:23:53;;;;;;;11.25;5.50;;;12.20;57.70;;;;;;5071657;28;20517;-77
2022/05/05 01:29:12;;;;;;;10.63;6.53;;;12.30;57.80;;;;;;5071701;28;20043;-78
2022/05/05 01:31:39;;;;;;;13.65;6.50;;;12.30;57.90;;;;;;5053483;28;20037;-73
2022/05/05 01:34:10;;;;;;;8.88;5.75;;;12.20;58.00;;;;;;5071417;28;20029;-78
2022/05/05 01:36:38;;;;;;;10.98;5.70;;;12.20;58.50;;;;;;5072467;28;20048;-73
2022/05/05 01:39:04;;;;;;;7.65;4.90;;;12.20;58.50;;;;;;5071268;28;20489;-77
2022/05/05 01:41:36;;;;;;;8.10;5.28;;;12.10;58.60;;;;;;5071054;28;20033;-73
2022/05/05 01:44:02;;;;;;;9.90;5.82;;;12.10;58.70;;;;;;5072621;28;20515;-73
2022/05/05 01:46:28;;;;;;;9.20;5.40;;;12.10;58.80;;;;;;5071220;28;20428;-77
2022/05/05 01:48:54;;;;;;;12.02;6.00;;;12.10;58.70;;;;;;5054579;28;20067;-77
2022/05/05 01:51:20;;;;;;;9.43;5.22;;;12.10;58.80;;;;;;5070858;28;20029;-77
2022/05/05 01:53:46;;;;;;;10.18;5.68;;;12.00;58.70;;;;;;5072547;28;20063;-77
2022/05/05 01:56:13;;;;;;;8.73;5.22;;;12.00;58.80;;;;;;5075011;28;20024;-72
2022/05/05 02:01:26;;;;;;;11.43;4.65;;;11.90;58.50;;;;;;5076218;28;20031;-73
2022/05/05 02:04:00;;;;;;;9.05;4.85;;;11.80;58.30;;;;;;5075894;28;20040;-72
2022/05/05 02:06:27;;;;;;;9.23;4.55;;;11.80;58.50;;;;;;5074632;28;20508;-72
2022/05/05 02:08:53;;;;;;;;;;;11.80;58.50;;;;;;5075839;28;20394;-77
2022/05/05 02:11:19;;;;;;;10.52;4.70;;;11.60;58.00;;;;;;5074680;28;19924;-77
2022/05/05 02:13:47;;;;;;;8.35;4.75;;;11.50;58.40;;;;;;5076368;28;20039;-77
2022/05/05 02:16:13;;;;;;;8.85;4.28;;;11.50;58.40;;;;;;5075876;28;20047;-72
2022/05/05 02:18:39;;;;;;;9.57;5.38;;;11.50;58.50;;;;;;5074068;28;20332;-77
2022/05/05 02:21:11;;;;;;;7.07;4.45;;;11.50;58.60;;;;;;5057814;28;20512;-72
2022/05/05 02:23:37;;;;;;;11.45;5.35;;;11.50;58.70;;;;;;5075082;28;20049;-77
2022/05/05 02:26:04;;;;;;;7.53;4.38;;;11.40;58.70;;;;;;5074417;28;20036;-77
2022/05/05 02:28:34;;;;;;;7.47;4.50;;;11.40;58.90;;;;;;5074893;28;20033;-77
2022/05/05 02:31:00;;;;;;;9.32;5.07;;;11.30;59.00;;;;;;5057993;28;20032;-77
2022/05/05 02:33:26;;;;;;;7.35;4.93;;;11.30;59.10;;;;;;5057003;28;20036;-77
2022/05/05 02:38:42;;;;;;;7.15;4.13;;;11.30;59.10;;;;;;5074252;28;20033;-72
2022/05/05 02:38:44;;;;;;;9.10;4.47;;;11.30;59.00;;;;;;5075908;28;20499;-77
2022/05/05 02:41:11;;;;;;;8.02;4.93;;;11.20;59.00;;;;;;5058303;28;20024;-73
2022/05/05 02:43:40;;;;;;;6.60;4.13;;;11.20;58.90;;;;;;5057751;28;20400;-73
2022/05/05 02:46:12;;;;;;;7.28;4.60;;;11.20;59.10;;;;;;5057333;28;20025;-72
2022/05/05 02:48:38;;;;;;;9.02;4.60;;;11.20;59.00;;;;;;5073455;28;20064;-77
2022/05/05 02:51:04;;;;;;;7.72;4.38;;;11.20;59.10;;;;;;5074281;28;20481;-73
2022/05/05 02:56:16;;;;;;;7.15;4.30;;;11.20;59.40;;;;;;5074534;28;20508;-73
2022/05/05 02:58:42;;;;;;;7.80;4.35;;;11.20;60.20;;;;;;5074243;28;20517;-73
2022/05/05 03:01:08;;;;;;;7.35;4.00;;;11.20;59.40;;;;;;5073850;28;20028;-77
2022/05/05 03:03:38;;;;;;;13.02;5.25;;;11.20;60.20;;;;;;5073066;28;20045;-77
2022/05/05 03:06:07;;;;;;;6.40;3.88;;;11.10;59.40;;;;;;5073759;28;20033;-77
2022/05/05 03:08:33;;;;;;;10.68;4.40;;;11.10;59.00;;;;;;5057350;28;20378;-73
2022/05/05 03:10:59;;;;;;;10.02;4.10;;;11.10;59.60;;;;;;5074958;28;20043;-73
2022/05/05 03:13:25;;;;;;;7.68;4.10;;;11.10;59.50;;;;;;5057159;28;20040;-73
2022/05/05 03:15:51;;;;;;;7.35;4.70;;;11.00;59.50;;;;;;5074718;28;20036;-77
2022/05/05 03:18:22;;;;;;;7.20;3.95;;;11.00;59.50;;;;;;5072784;28;20044;-77
2022/05/05 03:20:49;;;;;;;7.43;3.92;;;11.00;59.50;;;;;;5073419;28;20033;-78
2022/05/05 03:23:15;;;;;;;8.80;4.35;;;11.00;59.70;;;;;;5073602;28;20059;-77
2022/05/05 03:25:41;;;;;;;9.32;4.28;;;11.00;59.80;;;;;;5073508;28;20098;-77
2022/05/05 03:28:07;;;;;;;7.88;4.13;;;11.00;59.80;;;;;;5075428;28;20040;-77
2022/05/05 03:30:36;;;;;;;10.00;4.15;;;10.90;59.90;;;;;;5074881;28;20392;-73
2022/05/05 03:33:02;;;;;;;8.00;4.30;;;10.90;60.20;;;;;;5056120;28;20041;-73
2022/05/05 03:35:28;;;;;;;9.13;4.32;;;10.80;60.30;;;;;;5056440;28;20107;-77
2022/05/05 03:37:54;;;;;;;9.07;4.20;;;10.90;60.40;;;;;;5073617;28;20063;-77
2022/05/05 03:40:20;;;;;;;9.18;4.03;;;10.90;60.40;;;;;;5073105;28;20040;-77
2022/05/05 03:42:46;;;;;;;9.88;5.20;;;10.90;60.30;;;;;;5073671;28;20051;-77
2022/05/05 03:45:12;;;;;;;9.00;4.80;;;10.90;60.30;;;;;;5072983;28;20444;-76
2022/05/05 03:47:38;;;;;;;7.35;4.47;;;10.90;60.30;;;;;;5072461;28;20106;-77
2022/05/05 03:50:11;;;;;;;9.65;4.70;;;10.90;60.30;;;;;;5074466;28;20036;-77
2022/05/05 03:52:37;;;;;;;9.63;5.07;;;10.90;60.20;;;;;;5073448;28;20036;-73
2022/05/05 03:55:04;;;;;;;8.68;4.82;;;10.90;60.40;;;;;;5074410;28;20036;-73
2022/05/05 04:00:19;;;;;;;12.60;5.18;;;10.80;60.30;;;;;;5072923;28;20455;-73
2022/05/05 04:05:33;;;;;;;9.32;4.40;;;10.90;60.40;;;;;;5073882;28;20112;-77
2022/05/05 04:08:20;;;;;;;9.68;4.82;;;10.80;60.20;;;;;;5073079;28;20036;-73
2022/05/05 04:10:46;;;;;;;8.70;4.90;;;10.90;60.50;;;;;;5072503;28;20033;-77
2022/05/05 04:13:15;;;;;;;15.52;5.63;;;10.90;60.50;;;;;;5074531;28;20400;-76
2022/05/05 04:15:41;;;;;;;9.60;5.47;;;10.90;60.60;;;;;;5073524;28;20059;-73
2022/05/05 04:18:07;;;;;;;9.25;5.05;;;10.90;60.60;;;;;;5071461;28;20424;-74
2022/05/05 04:20:33;;;;;;;;;;;10.90;60.60;;;;;;5072837;28;20036;-76
2022/05/05 04:22:59;;;;;;;9.35;4.82;;;10.90;59.90;;;;;;5072514;28;19916;-77
2022/05/05 04:25:41;;;;;;;8.13;4.90;;;10.90;60.30;;;;;;5055474;28;20050;-76
2022/05/05 04:28:26;;;;;;;10.18;5.07;;;10.90;60.70;;;;;;5056031;28;20040;-77
2022/05/05 04:30:55;;;;;;;8.77;4.90;;;10.90;60.60;;;;;;5072021;28;20055;-73
2022/05/05 04:33:21;;;;;;;9.77;5.53;;;11.00;60.50;;;;;;5054827;28;20040;-77
2022/05/05 04:35:49;;;;;;;9.02;5.15;;;11.00;60.70;;;;;;5072025;28;20029;-77
2022/05/05 04:38:15;;;;;;;11.95;4.88;;;11.10;60.80;;;;;;5072134;28;20045;-77
2022/05/05 04:40:41;;;;;;;9.95;4.43;;;11.10;60.80;;;;;;5073167;28;20033;-73
2022/05/05 04:43:07;;;;;;;8.95;6.18;;;11.20;60.90;;;;;;5073776;28;20047;-77
2022/05/05 04:45:38;;;;;;;10.05;5.68;;;11.20;60.90;;;;;;5055029;28;20029;-77
2022/05/05 04:48:08;;;;;;;8.35;5.10;;;11.20;60.80;;;;;;5071265;28;20044;-74
2022/05/05 04:50:34;;;;;;;9.98;4.90;;;11.30;61.10;;;;;;5071825;28;20089;-77
2022/05/05 04:53:09;;;;;;;10.10;5.03;;;11.30;61.20;;;;;;5072299;28;20040;-77
2022/05/05 04:55:35;;;;;;;7.30;4.38;;;11.30;61.20;;;;;;5072943;28;20048;-77
2022/05/05 04:58:01;;;;;;;11.60;4.85;;;11.40;61.30;;;;;;5054981;28;20496;-77
2022/05/05 05:00:28;;;;;;;10.82;5.32;;;11.40;61.30;;;;;;5071421;28;20523;-73
2022/05/05 05:02:58;;;;;;;9.98;5.47;;;11.50;61.40;;;;;;5073456;28;20032;-73
2022/05/05 05:05:24;;;;;;;8.32;4.90;;;11.50;61.60;;;;;;5050986;28;20045;-73
2022/05/05 05:07:52;;;;;;;10.15;4.50;;;11.60;61.60;;;;;;5035378;28;20370;-73
2022/05/05 05:10:19;;;;;;;10.57;4.63;;;11.60;61.50;;;;;;5051464;28;20033;-73
2022/05/05 05:12:45;;;;;;;9.80;4.88;;;11.60;61.80;;;;;;5035205;28;20033;-73
2022/05/05 05:15:11;;;;;;;8.20;4.95;;;11.60;62.30;;;;;;5052534;28;20516;-73
2022/05/05 05:17:37;;;;;;;;;;;11.60;62.90;;;;;;5052225;28;20064;-73
2022/05/05 05:20:04;;;;;;;8.07;4.75;;;11.60;62.20;;;;;;5066585;28;19924;-74
2022/05/05 05:22:30;;;;;;;8.57;5.35;;;11.60;62.20;;;;;;5072544;28;20114;-73
2022/05/05 05:24:56;;;;;;;;;;;11.70;61.90;;;;;;5073376;28;20037;-73
2022/05/05 05:27:22;;;;;;;12.93;5.47;;;11.70;61.60;;;;;;5070993;28;19943;-74
2022/05/05 05:29:48;;;;;;;8.20;5.65;;;11.80;62.00;;;;;;5071995;28;20055;-77
2022/05/05 05:32:15;;;;;;;9.15;5.93;;;11.90;62.30;;;;;;5072617;28;20429;-74
2022/05/05 05:34:44;;;;;;;9.52;6.20;;;12.00;62.30;;;;;;5054092;28;20041;-74
2022/05/05 05:37:10;;;;;;;10.57;5.80;;;12.00;62.70;;;;;;5072397;28;20040;-73
2022/05/05 05:39:37;;;;;;;10.02;6.38;;;12.10;62.80;;;;;;5071330;28;20056;-73
2022/05/05 05:42:04;;;;;;;9.55;6.22;;;12.20;62.60;;;;;;5072335;28;20044;-76
2022/05/05 05:44:33;;;;;;;13.48;6.28;;;12.30;62.40;;;;;;5071366;28;20037;-73
2022/05/05 05:46:59;;;;;;;12.90;6.70;;;12.40;62.40;;;;;;5071101;28;20442;-73
2022/05/05 05:49:29;;;;;;;10.07;7.13;;;12.50;62.50;;;;;;5053629;28;20627;-73
2022/05/05 05:51:55;;;;;;;15.02;7.85;;;12.60;62.60;;;;;;5072467;28;20040;-73
2022/05/05 05:54:22;;;;;;;10.32;7.10;;;12.80;62.50;;;;;;5071266;28;20036;-77
2022/05/05 05:56:50;;;;;;;11.85;7.63;;;12.90;62.20;;;;;;5054286;28;20120;-75
2022/05/05 05:59:18;;;;;;;13.25;7.78;;;13.00;62.20;;;;;;5072229;28;20037;-76
2022/05/05 06:04:29;;;;;;;10.98;7.13;;;13.20;62.10;;;;;;5071462;28;20040;-74
2022/05/05 06:06:56;;;;;;;10.75;6.85;;;13.40;61.70;;;;;;5070857;28;20037;-77
2022/05/05 06:09:25;;;;;;;11.02;7.25;;;13.50;61.70;;;;;;5071047;28;20485;-76
2022/05/05 06:11:51;;;;;;;10.85;6.68;;;13.70;61.90;;;;;;5070773;28;20036;-74
2022/05/05 06:14:17;;;;;;;11.50;6.45;;;13.80;61.70;;;;;;5054198;28;20028;-73
2022/05/05 06:16:43;;;;;;;9.48;5.97;;;13.90;61.40;;;;;;5070823;28;20115;-76
2022/05/05 06:19:10;;;;;;;11.48;6.93;;;14.00;61.20;;;;;;5071279;28;20068;-76
2022/05/05 06:21:36;;;;;;;9.23;6.20;;;14.20;61.10;;;;;;5070716;28;20090;-76
2022/05/05 06:24:03;;;;;;;10.43;6.63;;;14.30;61.30;;;;;;5072285;28;20124;-75
2022/05/05 06:26:29;;;;;;;9.85;6.18;;;14.40;60.20;;;;;;5071829;28;20037;-76
2022/05/05 06:28:56;;;;;;;11.55;5.97;;;14.60;60.80;;;;;;5072256;28;20033;-76
2022/05/05 06:31:23;;;;;;;10.90;5.65;;;14.70;60.60;;;;;;5070598;28;20088;-76
2022/05/05 06:33:49;;;;;;;10.75;5.82;;;14.80;60.30;;;;;;5070167;28;20474;-73
2022/05/05 06:36:18;;;;;;;;;;;14.90;60.20;;;;;;5034204;28;20029;-73
2022/05/05 06:38:44;;;;;;;9.93;5.90;;;15.00;59.50;;;;;;5050772;28;20362;-76
2022/05/05 06:41:12;;;;;;;12.60;6.18;;;15.10;60.00;;;;;;5053864;28;20048;-73
2022/05/05 06:43:38;;;;;;;11.25;6.30;;;15.30;59.40;;;;;;5055733;28;20045;-76
2022/05/05 06:46:04;;;;;;;8.10;4.75;;;15.50;60.00;;;;;;5054118;28;20063;-74
2022/05/05 06:48:31;;;;;;;9.85;5.82;;;15.70;59.20;;;;;;5054493;28;20068;-76
2022/05/05 06:50:57;;;;;;;;;;;15.90;58.90;;;;;;5070686;28;20033;-75
2022/05/05 06:53:24;;;;;;;7.20;4.10;;;16.20;58.30;;;;;;5074374;28;19973;-76
2022/05/05 06:55:55;;;;;;;8.05;5.35;;;16.30;57.40;;;;;;5057149;28;20036;-74
2022/05/05 06:58:22;;;;;;;9.48;4.78;;;16.60;57.10;;;;;;5074307;28;20524;-73
2022/05/05 07:03:42;;;;;;;10.05;5.25;;;17.10;57.30;;;;;;5075402;28;20099;-74
2022/05/05 07:06:10;;;;;;;13.98;4.63;;;17.40;57.70;;;;;;5072799;28;20036;-73
2022/05/05 07:11:25;;;;;;;9.32;4.85;;;17.90;55.50;;;;;;5073862;28;20106;-75
2022/05/05 07:13:52;;;;;;;10.93;5.53;;;18.30;54.80;;;;;;5073976;28;20047;-74
2022/05/05 07:16:18;;;;;;;8.57;4.78;;;18.60;54.30;;;;;;5073505;28;20021;-77
2022/05/05 07:18:55;;;;;;;7.10;4.40;;;18.90;53.90;;;;;;5073851;28;20405;-73
2022/05/05 07:21:22;;;;;;;8.60;4.03;;;19.10;53.70;;;;;;5072501;28;20041;-77
2022/05/05 07:23:51;;;;;;;7.82;4.05;;;19.30;52.70;;;;;;5057387;28;20053;-76
2022/05/05 07:26:17;;;;;;;6.78;4.15;;;19.30;52.20;;;;;;5073374;28;20032;-73
2022/05/05 07:28:46;;;;;;;7.35;4.35;;;19.30;52.10;;;;;;5075027;28;20040;-74
2022/05/05 07:31:14;;;;;;;7.93;4.18;;;19.40;51.60;;;;;;5073360;28;20033;-77
2022/05/05 07:33:49;;;;;;;8.88;4.57;;;19.50;51.60;;;;;;5057001;28;20036;-77
2022/05/05 07:36:16;;;;;;;14.13;5.78;;;19.50;51.20;;;;;;5073629;28;20037;-73
2022/05/05 07:38:42;;;;;;;9.25;4.30;;;19.70;51.70;;;;;;5074681;28;20051;-77
2022/05/05 07:41:08;;;;;;;7.15;4.32;;;19.80;51.30;;;;;;5074140;28;20439;-77
2022/05/05 07:43:37;;;;;;;7.22;4.30;;;20.00;50.60;;;;;;5073523;28;20130;-77
2022/05/05 07:46:03;;;;;;;6.38;3.88;;;20.30;49.50;;;;;;5074207;28;20436;-75
2022/05/05 07:48:29;;;;;;;8.40;4.03;;;20.50;48.90;;;;;;5074578;28;20044;-74
2022/05/05 07:50:55;;;;;;;6.82;4.35;;;20.80;48.60;;;;;;5073252;28;20489;-73
2022/05/05 07:53:21;;;;;;;7.05;3.75;;;21.00;48.60;;;;;;5073424;28;20040;-73
2022/05/05 07:55:50;;;;;;;10.75;5.28;;;21.40;48.30;;;;;;5072686;28;20110;-78
2022/05/05 07:58:16;;;;;;;5.47;3.55;;;21.80;47.70;;;;;;5073047;28;20139;-77
2022/05/05 08:00:42;;;;;;;;;;;22.20;45.60;;;;;;5074570;28;20024;-77
2022/05/05 08:03:08;;;;;;;8.32;3.72;;;22.60;47.80;;;;;;5073135;28;19934;-78
2022/05/05 08:05:34;;;;;;;12.18;3.50;;;22.90;44.20;;;;;;5072842;28;20055;-78
2022/05/05 08:08:00;;;;;;;;;;;23.40;43.50;;;;;;5075129;28;20550;-78
2022/05/05 08:10:28;;;;;;;7.55;3.10;;;23.90;45.70;;;;;;5072542;28;19920;-78
2022/05/05 08:12:55;;;;;;;10.05;3.20;;;24.30;41.40;;;;;;5073081;28;20036;-74
2022/05/05 08:15:21;;;;;;;9.75;3.20;;;24.70;39.50;;;;;;5073507;28;20040;-79
2022/05/05 08:17:48;;;;;;;6.05;2.92;;;25.10;38.60;;;;;;5074264;28;20043;-79
2022/05/05 08:20:15;;;;;;;5.53;2.90;;;25.50;37.70;;;;;;5072634;28;20460;-78
2022/05/05 08:22:42;;;;;;;6.07;2.75;;;26.00;36.40;;;;;;5072465;28;20056;-74
2022/05/05 08:30:38;;;;;;;6.72;2.88;;;27.30;33.20;;;;;;5072348;28;20454;-74
2022/05/05 08:33:05;;;;;;;7.88;3.00;;;27.90;31.90;;;;;;5072389;28;20398;-79
2022/05/05 08:35:32;;;;;;;6.53;2.83;;;28.50;31.50;;;;;;5071074;28;20072;-79
2022/05/05 08:38:00;;;;;;;6.25;2.60;;;29.00;29.90;;;;;;5072464;28;20036;-79
2022/05/05 08:40:30;;;;;;;5.00;2.50;;;29.50;28.80;;;;;;5055175;28;20521;-79
2022/05/05 08:42:56;;;;;;;5.70;2.63;;;29.70;26.80;;;;;;5072350;28;20041;-80
2022/05/05 08:45:22;;;;;;;4.78;2.65;;;30.30;27.80;;;;;;5071843;28;20115;-74
2022/05/05 08:47:54;;;;;;;5.65;2.67;;;30.80;26.80;;;;;;5072161;28;20040;-79
2022/05/05 08:50:23;;;;;;;5.50;2.55;;;31.60;26.50;;;;;;5072047;28;20032;-78
2022/05/05 08:52:50;;;;;;;5.93;2.67;;;32.00;24.40;;;;;;5072243;28;20492;-79
2022/05/05 08:55:36;;;;;;;5.10;2.75;;;32.20;24.30;;;;;;5072860;28;20037;-78
2022/05/05 08:58:11;;;;;;;6.68;2.50;;;32.40;24.60;;;;;;5058263;28;20093;-79
2022/05/05 09:00:37;;;;;;;8.38;2.53;;;32.80;23.00;;;;;;5073254;28;20037;-75
2022/05/05 09:03:04;;;;;;;4.97;2.45;;;33.20;23.00;;;;;;5071858;28;20115;-75
2022/05/05 09:06:11;;;;;;;5.53;2.97;;;33.60;22.10;;;;;;5070497;28;20044;-79
2022/05/05 09:08:38;;;;;;;6.53;2.85;;;33.90;22.20;;;;;;5073014;28;20082;-78
2022/05/05 09:11:07;;;;;;;5.53;2.60;;;34.70;20.90;;;;;;5054690;28;20060;-79
2022/05/05 09:13:54;;;;;;;5.65;2.10;;;34.90;19.50;;;;;;5071801;28;20086;-74
2022/05/05 09:16:47;;;;;;;6.25;2.70;;;35.20;19.70;;;;;;5072495;28;20039;-74
2022/05/05 09:19:20;;;;;;;4.35;2.33;;;35.90;20.00;;;;;;5054994;28;20111;-74
2022/05/05 09:21:49;;;;;;;4.78;2.60;;;36.30;17.60;;;;;;5071574;28;20028;-74
2022/05/05 09:27:33;;;;;;;4.95;2.55;;;37.70;16.50;;;;;;5072585;28;20051;-73
2022/05/05 09:30:28;;;;;;;5.20;2.50;;;38.70;16.80;;;;;;5072997;28;20044;-74
2022/05/05 09:33:00;;;;;;;5.40;2.40;;;39.70;16.00;;;;;;5073250;28;20107;-78
2022/05/05 09:35:32;;;;;;;7.53;2.55;;;39.70;15.50;;;;;;5071358;28;20974;-78
2022/05/05 09:38:07;;;;;;;8.55;2.58;;;39.20;15.40;;;;;;5073048;28;20120;-73
2022/05/05 09:40:33;;;;;;;5.70;2.50;;;39.10;15.80;;;;;;5071083;28;20039;-74
2022/05/05 09:43:27;;;;;;;4.25;2.30;;;39.10;15.70;;;;;;5073038;28;20040;-73
2022/05/05 09:45:55;;;;;;;5.90;2.55;;;38.90;15.60;;;;;;5054172;28;20033;-78
2022/05/05 09:48:24;;;;;;;4.60;2.55;;;38.20;16.20;;;;;;5071311;28;20036;-78
2022/05/05 09:50:50;;;;;;;5.28;2.33;;;37.60;16.40;;;;;;5069781;28;20451;-78
2022/05/05 09:59:00;;;;;;;7.32;2.20;;;38.20;15.80;;;;;;5071766;28;19979;-79
2022/05/05 10:01:34;;;;;;;9.55;2.40;;;38.60;15.00;;;;;;5072086;28;20029;-78
2022/05/05 10:04:05;;;;;;;9.43;2.40;;;38.40;15.10;;;;;;5071254;28;20039;-74
2022/05/05 10:06:52;;;;;;;5.05;2.30;;;38.50;15.50;;;;;;5069839;28;20041;-79
2022/05/05 10:09:18;;;;;;;4.57;2.20;;;38.60;14.70;;;;;;5071285;28;20485;-74
2022/05/05 10:11:45;;;;;;;4.63;1.88;;;38.40;14.70;;;;;;5072095;28;20354;-74
2022/05/05 10:14:16;;;;;;;7.65;2.30;;;38.30;14.60;;;;;;5070974;28;20048;-74
2022/05/05 10:16:44;;;;;;;4.60;2.20;;;38.30;14.70;;;;;;5073985;28;20473;-78
2022/05/05 10:19:11;;;;;;;7.45;2.50;;;38.10;14.70;;;;;;5074932;28;20093;-79
2022/05/05 10:22:34;;;;;;;5.25;2.20;;;37.70;14.80;;;;;;5073570;28;20064;-73
2022/05/05 10:25:28;;;;;;;4.72;2.53;;;38.30;15.30;;;;;;5076195;28;20508;-73
2022/05/05 10:27:55;;;;;;;6.10;2.88;;;38.50;14.10;;;;;;5074950;28;20085;-78
2022/05/05 10:30:39;;;;;;;3.92;2.00;;;38.40;14.50;;;;;;5075634;28;20499;-79
2022/05/05 10:33:06;;;;;;;4.53;2.22;;;38.30;14.50;;;;;;5076456;28;20032;-73
2022/05/05 10:35:51;;;;;;;5.07;1.90;;;38.00;14.10;;;;;;5074301;28;20033;-73
2022/05/05 10:38:55;;;;;;;4.65;1.98;;;37.20;15.10;;;;;;5055257;28;20053;-78
2022/05/05 10:41:40;;;;;;;5.22;1.92;;;36.80;15.00;;;;;;5054042;28;20043;-73
2022/05/05 10:44:28;;;;;;;4.57;1.80;;;36.30;14.80;;;;;;5054595;28;20041;-78
2022/05/05 10:47:16;;;;;;;6.07;2.30;;;35.70;15.70;;;;;;5054176;28;20409;-79
2022/05/05 10:49:44;;;;;;;5.35;2.13;;;35.50;15.70;;;;;;5054528;28;20044;-79
2022/05/05 10:52:28;;;;;;;4.95;1.95;;;35.50;15.20;;;;;;5063372;28;20044;-79
2022/05/05 10:54:55;;;;;;;5.32;2.20;;;35.20;15.20;;;;;;5075673;28;20033;-78
2022/05/05 10:58:00;;;;;;;4.82;1.80;;;34.90;15.80;;;;;;5073944;28;20047;-73
2022/05/05 11:03:24;;;;;;;3.55;1.80;;;35.10;15.70;;;;;;5075323;28;20044;-79
2022/05/05 11:05:50;;;;;;;7.00;2.63;;;34.90;14.80;;;;;;5073758;28;20033;-79
2022/05/05 11:08:31;;;;;;;5.40;2.00;;;34.60;15.00;;;;;;5074307;28;20041;-73
2022/05/05 11:14:00;;;;;;;12.70;2.10;;;34.70;15.90;;;;;;5074217;28;20401;-74
2022/05/05 11:22:21;;;;;;;5.10;2.10;;;34.00;17.20;;;;;;5072446;28;20141;-74
2022/05/05 11:24:50;;;;;;;4.20;2.10;;;34.00;16.30;;;;;;5075377;28;20036;-79
2022/05/05 11:27:22;;;;;;;5.57;2.38;;;34.50;15.50;;;;;;5071955;28;20036;-79
2022/05/05 11:30:07;;;;;;;6.70;2.13;;;34.80;15.90;;;;;;5057141;28;20386;-79
2022/05/05 11:32:34;;;;;;;4.70;2.40;;;34.80;15.70;;;;;;5073844;28;20043;-74
2022/05/05 11:35:03;;;;;;;8.75;2.58;;;34.50;15.80;;;;;;5056902;28;20032;-74
2022/05/05 11:37:33;;;;;;;4.40;2.00;;;34.10;16.00;;;;;;5072452;28;20098;-79
2022/05/05 11:40:02;;;;;;;6.20;2.30;;;33.80;16.20;;;;;;5056919;28;20036;-74
2022/05/05 11:42:28;;;;;;;8.98;2.47;;;34.20;16.90;;;;;;5074673;28;20097;-79
2022/05/05 11:44:54;;;;;;;6.55;1.90;;;34.90;15.20;;;;;;5073525;28;20112;-74
2022/05/05 11:47:23;;;;;;;7.15;2.22;;;35.40;15.10;;;;;;5074365;28;20032;-74
2022/05/05 11:49:52;;;;;;;4.65;1.90;;;35.80;15.40;;;;;;5056644;28;20033;-74
2022/05/05 11:52:39;;;;;;;4.10;2.00;;;36.20;15.20;;;;;;5071891;28;20029;-79
2022/05/05 11:55:08;;;;;;;8.10;1.92;;;36.30;14.50;;;;;;5073127;28;20024;-79
2022/05/05 11:57:38;;;;;;;5.03;2.28;;;36.70;13.80;;;;;;5073159;28;20509;-79
2022/05/05 12:02:58;;;;;;;4.90;2.10;;;36.20;14.90;;;;;;5073673;28;20117;-73
2022/05/05 12:05:25;;;;;;;6.15;3.17;;;38.00;13.90;;;;;;5073754;28;20075;-73
2022/05/05 12:07:53;;;;;;;5.80;3.47;;;38.60;13.30;;;;;;5072255;28;20036;-79
2022/05/05 12:10:23;;;;;;;5.55;2.10;;;38.70;13.00;;;;;;5072657;28;20439;-79
2022/05/05 12:12:52;;;;;;;6.20;2.30;;;37.80;13.60;;;;;;5074497;28;20037;-74
2022/05/05 12:15:21;;;;;;;4.00;1.90;;;37.20;14.40;;;;;;5073612;28;20036;-78
2022/05/05 12:18:14;;;;;;;4.20;1.85;;;36.60;13.00;;;;;;5072842;28;20089;-76
2022/05/05 12:20:43;;;;;;;10.43;3.10;;;36.30;14.70;;;;;;5072486;28;20079;-79
2022/05/05 12:23:12;;;;;;;7.95;2.13;;;36.40;15.10;;;;;;5059835;28;20056;-73
2022/05/05 12:25:44;;;;;;;4.25;1.98;;;36.40;14.20;;;;;;5053559;28;20040;-73
2022/05/05 12:28:11;;;;;;;5.65;2.47;;;36.10;14.20;;;;;;5052713;28;20436;-79
2022/05/05 12:30:54;;;;;;;;;;;;;;;;;;;;;
2022/05/05 12:33:37;;;;;;;9.95;5.20;;;35.30;14.80;;;;;;5052639;28;20036;-74
2022/05/05 12:36:15;;;;;;;3.97;2.00;;;35.10;15.50;;;;;;5053305;28;20441;-75
2022/05/05 12:38:41;;;;;;;10.13;3.47;;;35.20;15.50;;;;;;5066681;28;20127;-79
2022/05/05 12:41:13;;;;;;;5.00;2.45;;;35.30;15.10;;;;;;5071927;28;20777;-73
2022/05/05 12:43:41;;;;;;;8.73;5.25;;;35.60;15.60;;;;;;5072230;28;20124;-74
2022/05/05 12:46:17;;;;;;;6.55;2.58;;;35.60;14.60;;;;;;5073089;28;20419;-74
2022/05/05 12:48:53;;;;;;;;;;;35.40;15.00;;;;;;5072725;28;20043;-79
2022/05/05 12:51:19;;;;;;;6.13;2.28;;;35.10;15.50;;;;;;5055374;28;20006;-73
2022/05/05 13:02:05;;;;;;;6.93;3.65;;;34.20;16.70;;;;;;5072572;28;20035;-79
2022/05/05 13:04:36;;;;;;;8.45;4.20;;;33.90;15.40;;;;;;5071850;28;20114;-73
2022/05/05 13:07:03;;;;;;;8.23;4.70;;;33.50;16.10;;;;;;5071115;28;20033;-73
2022/05/05 13:09:29;;;;;;;5.47;2.70;;;33.30;16.70;;;;;;5052668;28;20040;-74
2022/05/05 13:11:58;;;;;;;3.65;1.90;;;33.00;16.40;;;;;;5052809;28;20041;-78
2022/05/05 13:14:24;;;;;;;4.18;2.17;;;32.50;17.00;;;;;;5052894;28;20037;-74
2022/05/05 13:16:53;;;;;;;3.55;1.88;;;31.90;17.70;;;;;;5034763;28;20116;-73
2022/05/05 13:19:19;;;;;;;7.57;2.25;;;31.30;18.80;;;;;;5051722;28;20029;-77
2022/05/05 13:21:45;;;;;;;10.80;2.72;;;30.80;18.20;;;;;;5051052;28;20033;-78
2022/05/05 13:24:11;;;;;;;6.10;2.20;;;30.30;19.00;;;;;;5067193;28;20075;-78
2022/05/05 13:26:43;;;;;;;7.07;2.08;;;29.90;19.90;;;;;;5054409;28;20037;-73
2022/05/05 13:29:11;;;;;;;4.95;2.13;;;29.70;19.60;;;;;;5071862;28;20055;-78
2022/05/05 13:31:40;;;;;;;8.80;2.55;;;29.50;19.90;;;;;;5063072;28;20475;-73
2022/05/05 13:34:08;;;;;;;7.70;2.42;;;29.40;20.50;;;;;;5052650;28;20033;-78
2022/05/05 13:36:45;;;;;;;8.88;2.58;;;29.20;21.60;;;;;;5051194;28;20401;-73
2022/05/05 13:39:12;;;;;;;4.20;2.17;;;29.00;21.40;;;;;;5067223;28;20041;-73
2022/05/05 13:41:41;;;;;;;9.40;2.47;;;28.80;21.50;;;;;;5071079;28;20394;-73
2022/05/05 13:44:07;;;;;;;5.05;2.30;;;28.70;22.10;;;;;;5054687;28;20028;-73
2022/05/05 13:46:39;;;;;;;12.20;3.40;;;28.60;21.90;;;;;;5070986;28;20466;-74
2022/05/05 13:49:05;;;;;;;5.82;2.70;;;28.60;21.20;;;;;;5071260;28;20029;-79
2022/05/05 13:51:32;;;;;;;4.50;2.17;;;28.50;22.00;;;;;;5070175;28;20067;-79
2022/05/05 13:54:05;;;;;;;5.47;2.15;;;28.50;22.00;;;;;;5070329;28;20090;-74
2022/05/05 13:56:32;;;;;;;4.72;2.30;;;28.30;22.40;;;;;;5070970;28;20036;-79
2022/05/05 13:58:58;;;;;;;5.78;2.40;;;28.20;22.80;;;;;;5071042;28;20044;-79
2022/05/05 14:01:29;;;;;;;4.78;2.50;;;28.10;23.50;;;;;;5070577;28;20370;-74
2022/05/05 14:03:55;;;;;;;4.30;2.20;;;28.00;24.00;;;;;;5072457;28;20488;-79